Time;durP1;ratioP1;P1;durP2;ratioP2;P2;SDS_P1;SDS_P2;PMS_P1;PMS_P2;Temp;Humidity;BMP_temperature;BMP_pressure;BME280_temperature;BME280_humidity;BME280_pressure;Samples;Min_cycle;Max_cycle;Signal;HPM_P1;HPM_P2
2024/02/15 00:02:13;;;;;;;3.63;3.20;;;11.20;99.90;;;;;;5100149;28;20502;-43
2024/02/15 00:04:39;;;;;;;4.03;2.83;;;11.20;99.90;;;;;;5116590;28;20436;-45
2024/02/15 00:07:05;;;;;;;5.33;3.13;;;11.20;99.90;;;;;;5114852;28;20578;-42
2024/02/15 00:09:31;;;;;;;4.90;4.03;;;11.10;99.90;;;;;;5115189;28;20577;-43
2024/02/15 00:11:57;;;;;;;4.30;2.33;;;11.10;99.90;;;;;;5113782;28;20168;-45
2024/02/15 00:14:22;;;;;;;4.70;2.70;;;11.00;99.90;;;;;;5114050;28;20171;-42
2024/02/15 00:16:48;;;;;;;3.43;2.77;;;11.00;99.90;;;;;;5112073;28;20802;-44
2024/02/15 00:19:16;;;;;;;5.60;2.50;;;11.00;99.90;;;;;;5112572;28;20270;-46
2024/02/15 00:21:46;;;;;;;5.33;3.90;;;10.90;99.90;;;;;;5112123;28;20603;-43
2024/02/15 00:24:11;;;;;;;3.97;2.80;;;10.90;99.90;;;;;;5111979;28;20424;-43
2024/02/15 00:26:37;;;;;;;3.30;2.30;;;10.90;99.90;;;;;;5113583;28;20405;-42
2024/02/15 00:29:04;;;;;;;5.30;2.50;;;10.90;99.90;;;;;;5112573;28;20175;-42
2024/02/15 00:31:29;;;;;;;3.63;2.10;;;10.80;99.90;;;;;;5115610;28;20711;-45
2024/02/15 00:33:55;;;;;;;3.50;2.20;;;10.80;99.90;;;;;;5115730;28;20429;-43
2024/02/15 00:36:20;;;;;;;3.13;2.33;;;10.80;99.90;;;;;;5114945;28;20180;-41
2024/02/15 00:38:46;;;;;;;3.80;2.53;;;10.80;99.90;;;;;;5113797;28;20581;-42
2024/02/15 00:41:12;;;;;;;2.67;2.10;;;10.70;99.90;;;;;;5113410;28;20251;-40
2024/02/15 00:43:38;;;;;;;4.53;2.17;;;10.70;99.90;;;;;;5114485;28;20512;-43
2024/02/15 00:46:04;;;;;;;2.63;2.10;;;10.70;99.90;;;;;;5114500;28;20425;-43
2024/02/15 00:48:29;;;;;;;2.57;2.37;;;10.70;99.90;;;;;;5116186;28;20473;-43
2024/02/15 00:50:56;;;;;;;5.30;2.30;;;10.70;99.90;;;;;;5116297;28;20181;-42
2024/02/15 00:53:21;;;;;;;2.40;1.70;;;10.70;99.90;;;;;;5116788;28;20540;-40
2024/02/15 00:55:47;;;;;;;3.60;2.27;;;10.60;99.90;;;;;;5117567;28;20479;-40
2024/02/15 00:58:12;;;;;;;3.83;2.67;;;10.60;99.90;;;;;;5117708;28;20176;-43
2024/02/15 01:00:38;;;;;;;4.23;2.47;;;10.60;99.90;;;;;;5116174;28;20300;-44
2024/02/15 01:03:04;;;;;;;4.27;2.57;;;10.60;99.90;;;;;;5116368;28;20180;-42
2024/02/15 01:05:30;;;;;;;3.53;2.43;;;10.50;99.90;;;;;;5117024;28;20178;-40
2024/02/15 01:07:56;;;;;;;2.73;2.20;;;10.50;99.90;;;;;;5098907;28;20441;-42
2024/02/15 01:10:23;;;;;;;6.70;2.20;;;10.50;99.90;;;;;;5116131;28;20500;-41
2024/02/15 01:12:49;;;;;;;2.90;2.60;;;10.40;99.90;;;;;;5117559;28;20432;-41
2024/02/15 01:15:18;;;;;;;3.07;1.80;;;10.40;99.90;;;;;;5116008;28;20425;-44
2024/02/15 01:17:44;;;;;;;4.37;2.33;;;10.40;99.90;;;;;;5115884;28;20179;-44
2024/02/15 01:20:10;;;;;;;3.90;1.80;;;10.40;99.90;;;;;;5116804;28;20433;-41
2024/02/15 01:22:36;;;;;;;2.87;2.20;;;10.30;99.90;;;;;;5117086;28;20485;-43
2024/02/15 01:25:01;;;;;;;3.87;2.60;;;10.30;99.90;;;;;;5117247;28;20433;-42
2024/02/15 01:27:30;;;;;;;3.40;2.20;;;10.30;99.90;;;;;;5115862;28;20470;-44
2024/02/15 01:29:58;;;;;;;4.10;2.10;;;10.30;99.90;;;;;;5117230;28;20392;-43
2024/02/15 01:32:25;;;;;;;3.80;2.30;;;10.30;99.90;;;;;;5117018;28;20807;-43
2024/02/15 01:34:53;;;;;;;2.77;2.30;;;10.30;99.90;;;;;;5115185;28;20880;-44
2024/02/15 01:37:20;;;;;;;3.37;2.43;;;10.20;99.90;;;;;;5116969;28;20429;-41
2024/02/15 01:39:46;;;;;;;3.00;2.10;;;10.20;99.90;;;;;;5117169;28;20445;-43
2024/02/15 01:42:14;;;;;;;2.70;2.33;;;10.20;99.90;;;;;;5117351;28;20496;-40
2024/02/15 01:44:40;;;;;;;3.50;2.57;;;10.20;99.90;;;;;;5120063;28;20469;-44
2024/02/15 01:47:06;;;;;;;4.13;2.20;;;10.20;99.90;;;;;;5121180;28;20551;-41
2024/02/15 01:49:32;;;;;;;3.70;2.30;;;10.10;99.90;;;;;;5120052;28;20490;-43
2024/02/15 01:51:58;;;;;;;4.40;2.40;;;10.00;99.90;;;;;;5101139;28;20437;-41
2024/02/15 01:54:24;;;;;;;3.80;2.27;;;10.00;99.90;;;;;;5118390;28;20275;-42
2024/02/15 01:56:50;;;;;;;4.13;2.50;;;9.90;99.90;;;;;;5118305;28;20424;-43
2024/02/15 01:59:16;;;;;;;4.10;2.40;;;9.90;99.90;;;;;;5118288;28;20417;-43
2024/02/15 02:01:42;;;;;;;5.20;2.17;;;9.80;99.90;;;;;;5133894;27;20226;-42
2024/02/15 02:04:09;;;;;;;3.73;2.37;;;9.80;99.90;;;;;;5121101;27;20429;-40
2024/02/15 02:06:34;;;;;;;3.60;2.20;;;9.80;99.90;;;;;;5139310;27;20183;-42
2024/02/15 02:09:01;;;;;;;4.30;2.37;;;9.70;1.00;;;;;;5140078;27;20482;-42
2024/02/15 02:11:29;;;;;;;3.80;2.87;;;9.70;1.00;;;;;;5121102;27;20579;-41
2024/02/15 02:13:55;;;;;;;2.60;2.37;;;9.60;1.00;;;;;;5140091;27;20429;-42
2024/02/15 02:16:35;;;;;;;2.33;2.13;;;9.60;1.00;;;;;;5140607;27;20446;-41
2024/02/15 02:19:01;;;;;;;4.57;2.83;;;9.50;1.00;;;;;;5122785;27;20497;-40
2024/02/15 02:21:28;;;;;;;4.07;3.00;;;9.40;1.00;;;;;;5122192;27;20468;-41
2024/02/15 02:23:56;;;;;;;3.57;2.63;;;9.40;1.00;;;;;;5121899;27;20496;-43
2024/02/15 02:26:23;;;;;;;4.47;2.30;;;9.40;1.00;;;;;;5140882;27;20396;-42
2024/02/15 02:28:49;;;;;;;2.73;2.53;;;9.40;1.00;;;;;;5140511;27;20436;-44
2024/02/15 02:31:15;;;;;;;3.90;2.37;;;9.40;1.00;;;;;;5139720;27;20479;-45
2024/02/15 02:33:42;;;;;;;4.33;2.50;;;9.30;1.00;;;;;;5122653;27;20462;-44
2024/02/15 02:36:09;;;;;;;3.60;2.00;;;9.30;1.00;;;;;;5122514;27;20246;-42
2024/02/15 02:38:37;;;;;;;2.93;2.23;;;9.40;1.00;;;;;;5140500;27;20676;-43
2024/02/15 02:41:04;;;;;;;4.63;2.60;;;9.40;1.00;;;;;;5122303;27;20864;-42
2024/02/15 02:43:29;;;;;;;6.60;2.77;;;9.30;1.00;;;;;;5140546;27;20428;-43
2024/02/15 02:45:55;;;;;;;4.07;2.03;;;9.30;1.00;;;;;;5140784;27;20687;-41
2024/02/15 02:48:21;;;;;;;2.93;2.43;;;9.30;1.00;;;;;;5140265;27;20182;-44
2024/02/15 02:50:47;;;;;;;4.33;2.83;;;9.20;1.00;;;;;;5140126;27;20175;-45
2024/02/15 02:53:13;;;;;;;4.90;2.67;;;9.20;1.00;;;;;;5120701;27;20177;-45
2024/02/15 02:55:40;;;;;;;4.53;2.50;;;9.10;1.00;;;;;;5138900;27;20436;-43
2024/02/15 02:58:07;;;;;;;3.63;2.70;;;9.10;1.00;;;;;;5122103;27;20436;-41
2024/02/15 03:00:33;;;;;;;3.60;2.03;;;9.10;1.00;;;;;;5121179;27;20846;-41
2024/02/15 03:02:59;;;;;;;3.07;2.37;;;9.10;1.00;;;;;;5121301;27;20711;-44
2024/02/15 03:05:25;;;;;;;3.50;2.40;;;9.00;1.00;;;;;;5139425;27;20474;-42
2024/02/15 03:07:51;;;;;;;3.17;2.40;;;9.00;1.00;;;;;;5139449;27;20416;-41
2024/02/15 03:10:18;;;;;;;4.03;2.63;;;8.90;1.00;;;;;;5140010;27;20477;-40
2024/02/15 03:12:46;;;;;;;4.13;2.20;;;8.90;1.00;;;;;;5139741;27;20425;-44
2024/02/15 03:15:13;;;;;;;3.00;2.33;;;8.80;1.00;;;;;;5139606;27;20426;-43
2024/02/15 03:17:39;;;;;;;3.57;2.50;;;8.80;1.00;;;;;;5139393;27;20409;-41
2024/02/15 03:20:19;;;;;;;3.37;2.50;;;8.90;1.00;;;;;;5139378;27;20524;-41
2024/02/15 03:22:57;;;;;;;4.03;2.80;;;8.90;1.00;;;;;;5139525;27;20566;-43
2024/02/15 03:25:24;;;;;;;3.50;2.93;;;8.80;1.00;;;;;;5139521;27;20425;-42
2024/02/15 03:27:53;;;;;;;3.60;2.80;;;8.80;1.00;;;;;;5139204;27;20507;-43
2024/02/15 03:30:19;;;;;;;3.17;2.60;;;8.80;1.00;;;;;;5139767;27;20929;-41
2024/02/15 03:32:48;;;;;;;3.40;2.50;;;8.80;1.00;;;;;;5139737;27;20714;-42
2024/02/15 03:35:14;;;;;;;4.07;2.60;;;8.80;1.00;;;;;;5139564;27;20413;-42
2024/02/15 03:37:41;;;;;;;4.43;2.43;;;8.80;1.00;;;;;;5139535;27;20436;-43
2024/02/15 03:40:08;;;;;;;3.00;2.70;;;8.70;1.00;;;;;;5139440;27;20438;-42
2024/02/15 03:42:36;;;;;;;5.70;3.20;;;8.70;1.00;;;;;;5139430;27;20464;-43
2024/02/15 03:45:03;;;;;;;5.47;2.50;;;8.70;1.00;;;;;;5139275;27;20501;-45
2024/02/15 03:47:29;;;;;;;5.73;3.07;;;8.70;1.00;;;;;;5120755;27;20469;-41
2024/02/15 03:49:55;;;;;;;4.87;3.13;;;8.70;1.00;;;;;;5139005;27;20740;-41
2024/02/15 03:52:21;;;;;;;4.30;3.00;;;8.70;1.00;;;;;;5138546;27;20175;-44
2024/02/15 03:54:47;;;;;;;3.07;2.30;;;8.70;1.00;;;;;;5137945;27;20485;-42
2024/02/15 03:57:13;;;;;;;3.70;2.63;;;8.70;1.00;;;;;;5138348;27;20432;-43
2024/02/15 03:59:40;;;;;;;4.43;2.70;;;8.70;1.00;;;;;;5138882;27;20258;-42
2024/02/15 04:02:08;;;;;;;3.00;2.17;;;8.70;1.00;;;;;;5137890;27;20545;-42
2024/02/15 04:04:34;;;;;;;3.80;3.30;;;8.70;1.00;;;;;;5139041;27;20428;-42
2024/02/15 04:07:00;;;;;;;3.00;2.57;;;8.70;1.00;;;;;;5138246;27;20428;-42
2024/02/15 04:09:25;;;;;;;3.50;2.83;;;8.70;1.00;;;;;;5120753;27;20443;-45
2024/02/15 04:11:52;;;;;;;3.00;2.70;;;8.60;1.00;;;;;;5137773;27;20171;-43
2024/02/15 04:14:18;;;;;;;3.70;2.30;;;8.60;1.00;;;;;;5138641;27;20261;-43
2024/02/15 04:16:45;;;;;;;4.10;2.60;;;8.60;1.00;;;;;;5140238;27;20433;-42
2024/02/15 04:19:11;;;;;;;3.97;2.37;;;8.60;1.00;;;;;;5120521;27;20440;-42
2024/02/15 04:21:38;;;;;;;3.80;2.80;;;8.60;1.00;;;;;;5120474;27;20494;-41
2024/02/15 04:24:05;;;;;;;3.53;2.70;;;8.60;1.00;;;;;;5120365;27;20190;-42
2024/02/15 04:26:31;;;;;;;3.20;2.50;;;8.50;1.00;;;;;;5138926;27;20887;-42
2024/02/15 04:28:58;;;;;;;3.20;2.67;;;8.60;1.00;;;;;;5138194;27;20854;-42
2024/02/15 04:31:26;;;;;;;5.17;2.37;;;8.60;1.00;;;;;;5138541;27;20425;-42
2024/02/15 04:33:55;;;;;;;3.40;2.20;;;8.60;1.00;;;;;;5120525;27;20444;-41
2024/02/15 04:36:25;;;;;;;4.43;2.60;;;8.60;1.00;;;;;;5137100;27;20420;-41
2024/02/15 04:38:51;;;;;;;2.80;2.10;;;8.60;1.00;;;;;;5136289;27;20413;-41
2024/02/15 04:41:22;;;;;;;3.30;2.97;;;8.70;1.00;;;;;;5137784;27;20460;-42
2024/02/15 04:43:52;;;;;;;3.50;2.70;;;8.60;1.00;;;;;;5119163;27;20895;-44
2024/02/15 04:46:20;;;;;;;4.17;2.60;;;8.70;1.00;;;;;;5137357;27;20420;-41
2024/02/15 04:48:46;;;;;;;2.97;2.67;;;8.70;1.00;;;;;;5137257;27;20688;-43
2024/02/15 04:51:12;;;;;;;3.63;2.87;;;8.70;1.00;;;;;;5137047;27;20612;-42
2024/02/15 04:53:39;;;;;;;4.60;2.97;;;8.70;1.00;;;;;;5137073;27;20549;-42
2024/02/15 04:56:13;;;;;;;4.03;3.00;;;8.70;1.00;;;;;;5136447;27;20515;-44
2024/02/15 04:58:45;;;;;;;4.13;3.00;;;8.70;1.00;;;;;;5134845;27;20428;-45
2024/02/15 05:01:17;;;;;;;2.87;2.53;;;8.70;1.00;;;;;;5118062;28;20566;-43
2024/02/15 05:03:44;;;;;;;4.03;2.70;;;8.70;1.00;;;;;;5136618;27;20556;-41
2024/02/15 05:06:10;;;;;;;5.17;2.90;;;8.70;1.00;;;;;;5136541;28;20700;-40
2024/02/15 05:08:42;;;;;;;3.47;3.00;;;8.70;1.00;;;;;;5135257;28;20416;-42
2024/02/15 05:11:14;;;;;;;3.90;3.00;;;8.70;1.00;;;;;;5134720;28;20439;-42
2024/02/15 05:13:40;;;;;;;2.87;2.60;;;8.70;1.00;;;;;;5134530;28;20508;-42
2024/02/15 05:16:06;;;;;;;3.10;2.73;;;8.70;1.00;;;;;;5133296;28;20823;-44
2024/02/15 05:18:31;;;;;;;4.10;2.63;;;8.70;1.00;;;;;;5137007;27;20455;-46
2024/02/15 05:20:57;;;;;;;4.30;3.50;;;8.60;1.00;;;;;;5137879;27;20484;-44
2024/02/15 05:23:23;;;;;;;5.00;3.30;;;8.60;1.00;;;;;;5137586;27;20198;-45
2024/02/15 05:25:48;;;;;;;3.97;2.87;;;8.60;1.00;;;;;;5139648;27;20262;-43
2024/02/15 05:28:14;;;;;;;3.63;2.73;;;8.60;1.00;;;;;;5122322;27;20183;-44
2024/02/15 05:30:39;;;;;;;3.80;3.17;;;8.60;1.00;;;;;;5140707;27;20167;-41
2024/02/15 05:33:07;;;;;;;4.20;2.90;;;8.30;1.00;;;;;;5140814;27;20246;-42
2024/02/15 05:35:35;;;;;;;3.90;2.67;;;8.50;1.00;;;;;;5140703;27;20495;-43
2024/02/15 05:38:03;;;;;;;4.80;2.47;;;8.50;1.00;;;;;;5122887;27;20424;-43
2024/02/15 05:40:30;;;;;;;4.40;3.10;;;8.50;1.00;;;;;;5139670;27;20844;-43
2024/02/15 05:42:57;;;;;;;4.33;2.40;;;8.50;1.00;;;;;;5139132;27;20779;-43
2024/02/15 05:45:23;;;;;;;3.87;3.30;;;8.50;1.00;;;;;;5139267;27;20432;-43
2024/02/15 05:47:48;;;;;;;4.93;3.50;;;8.50;1.00;;;;;;5138768;27;20404;-42
2024/02/15 05:50:15;;;;;;;5.13;4.33;;;8.50;1.00;;;;;;5136479;27;20542;-47
2024/02/15 05:52:40;;;;;;;4.97;3.90;;;8.50;1.00;;;;;;5137074;27;20175;-43
2024/02/15 05:55:07;;;;;;;5.60;4.27;;;8.50;1.00;;;;;;5136984;27;20428;-43
2024/02/15 05:57:32;;;;;;;6.33;3.80;;;8.50;1.00;;;;;;5138906;27;20193;-44
2024/02/15 06:00:02;;;;;;;4.67;3.57;;;8.50;1.00;;;;;;5139084;27;20508;-42
2024/02/15 06:02:27;;;;;;;3.30;2.90;;;8.50;1.00;;;;;;5139592;27;20203;-44
2024/02/15 06:04:54;;;;;;;5.33;3.23;;;8.50;1.00;;;;;;5139214;27;20435;-40
2024/02/15 06:07:20;;;;;;;4.23;3.10;;;8.60;1.00;;;;;;5139018;27;20264;-40
2024/02/15 06:09:46;;;;;;;8.23;3.60;;;8.60;1.00;;;;;;5138252;27;20421;-40
2024/02/15 06:12:11;;;;;;;3.27;2.73;;;8.60;1.00;;;;;;5138569;27;20435;-41
2024/02/15 06:14:37;;;;;;;4.33;3.63;;;8.60;1.00;;;;;;5138244;27;20183;-41
2024/02/15 06:17:03;;;;;;;3.07;2.87;;;8.60;1.00;;;;;;5138285;27;20187;-41
2024/02/15 06:19:28;;;;;;;3.27;2.97;;;8.60;1.00;;;;;;5138342;27;20179;-40
2024/02/15 06:21:54;;;;;;;6.03;3.90;;;8.60;1.00;;;;;;5138928;27;20211;-44
2024/02/15 06:24:23;;;;;;;3.90;3.23;;;8.60;1.00;;;;;;5139296;27;20273;-45
2024/02/15 06:26:51;;;;;;;5.40;4.20;;;8.60;1.00;;;;;;5138828;27;20186;-40
2024/02/15 06:40:23;;;;;;;3.50;3.20;;;8.50;1.00;;;;;;5139472;27;20588;-41
2024/02/15 06:42:49;;;;;;;3.57;3.27;;;;;;;;;;5138262;27;20821;-45
2024/02/15 06:45:14;;;;;;;4.90;3.40;;;8.80;1.00;;;;;;5137887;27;20176;-42
2024/02/15 06:47:43;;;;;;;4.83;3.60;;;8.50;1.00;;;;;;5137735;27;20856;-42
2024/02/15 06:50:16;;;;;;;4.20;2.97;;;8.50;1.00;;;;;;5138304;27;20694;-42
2024/02/15 06:52:42;;;;;;;3.47;3.13;;;8.50;1.00;;;;;;5138397;27;20429;-44
2024/02/15 06:55:08;;;;;;;3.70;2.90;;;8.60;1.00;;;;;;5138281;27;20524;-44
2024/02/15 06:57:40;;;;;;;4.77;3.03;;;8.70;1.00;;;;;;5119732;27;20251;-43
2024/02/15 07:00:14;;;;;;;4.20;3.20;;;8.80;1.00;;;;;;5135798;27;20489;-44
2024/02/15 07:02:40;;;;;;;3.53;3.07;;;8.90;99.90;;;;;;5136238;27;20456;-43
2024/02/15 07:05:07;;;;;;;3.73;3.27;;;9.00;99.90;;;;;;5136557;27;20489;-42
2024/02/15 07:07:34;;;;;;;5.47;3.73;;;9.10;99.90;;;;;;5136622;27;20424;-43
2024/02/15 07:10:02;;;;;;;4.60;3.33;;;;;;;;;;5135825;27;20463;-44
2024/02/15 07:12:28;;;;;;;5.33;3.40;;;9.00;99.90;;;;;;5136225;27;20446;-47
2024/02/15 07:14:54;;;;;;;4.13;3.33;;;9.50;99.90;;;;;;5135312;27;20404;-45
2024/02/15 07:17:20;;;;;;;4.57;3.00;;;9.60;99.90;;;;;;5134576;27;20185;-43
2024/02/15 07:19:49;;;;;;;5.30;3.60;;;9.90;99.90;;;;;;5134877;27;20516;-50
2024/02/15 07:22:15;;;;;;;5.60;3.70;;;10.20;58.80;;;;;;5136343;27;20211;-42
2024/02/15 07:24:40;;;;;;;5.90;3.43;;;10.40;1.00;;;;;;5116025;27;20417;-41
2024/02/15 07:27:06;;;;;;;4.83;3.37;;;10.60;1.00;;;;;;5135810;27;20450;-45
2024/02/15 07:29:32;;;;;;;5.30;3.57;;;10.80;1.00;;;;;;5135922;27;20171;-42
2024/02/15 07:32:00;;;;;;;4.63;3.57;;;11.10;99.90;;;;;;5135737;27;20302;-43
2024/02/15 07:34:26;;;;;;;4.70;3.67;;;11.30;99.90;;;;;;5117750;27;20425;-41
2024/02/15 07:36:52;;;;;;;3.67;3.20;;;11.50;11.70;;;;;;5117407;27;20485;-44
2024/02/15 07:39:24;;;;;;;4.33;2.60;;;11.90;1.00;;;;;;5134956;27;20325;-43
2024/02/15 07:41:53;;;;;;;3.83;2.80;;;12.20;99.90;;;;;;5133788;27;20205;-42
2024/02/15 07:44:18;;;;;;;6.00;3.20;;;12.50;1.00;;;;;;5133923;27;20413;-42
2024/02/15 07:46:45;;;;;;;3.20;2.40;;;12.70;1.00;;;;;;5135574;27;20440;-41
2024/02/15 07:49:11;;;;;;;5.03;2.80;;;13.00;1.00;;;;;;5136528;27;20749;-46
2024/02/15 07:51:37;;;;;;;4.10;3.10;;;13.40;1.00;;;;;;5117730;27;20424;-45
2024/02/15 07:54:03;;;;;;;5.00;2.47;;;13.80;99.90;;;;;;5137033;27;20174;-43
2024/02/15 07:56:28;;;;;;;4.60;2.80;;;14.10;1.00;;;;;;5135649;27;20452;-44
2024/02/15 07:58:54;;;;;;;4.43;2.80;;;14.30;99.90;;;;;;5116102;27;20425;-42
2024/02/15 08:01:23;;;;;;;3.00;2.50;;;14.30;99.90;;;;;;5117521;27;20242;-41
2024/02/15 08:03:49;;;;;;;3.90;3.00;;;14.20;99.90;;;;;;5135947;27;20653;-43
2024/02/15 08:06:16;;;;;;;2.83;2.47;;;14.10;99.90;;;;;;5117313;27;20420;-41
2024/02/15 08:08:45;;;;;;;3.60;2.43;;;14.00;99.90;;;;;;5115857;27;20286;-40
2024/02/15 08:11:15;;;;;;;2.90;2.30;;;13.90;99.90;;;;;;5116574;27;20869;-42
2024/02/15 08:13:49;;;;;;;3.17;2.30;;;14.10;99.90;;;;;;5118273;27;20424;-41
2024/02/15 08:16:16;;;;;;;2.90;2.30;;;14.40;99.90;;;;;;5135323;27;20494;-41
2024/02/15 08:18:46;;;;;;;5.07;2.57;;;14.90;99.90;;;;;;5116812;27;20752;-41
2024/02/15 08:21:12;;;;;;;4.80;2.90;;;15.20;1.00;;;;;;5118522;27;20468;-42
2024/02/15 08:23:38;;;;;;;3.20;2.90;;;15.50;1.00;;;;;;5118909;27;20404;-43
2024/02/15 08:26:03;;;;;;;3.60;2.70;;;15.80;99.90;;;;;;5119483;27;20427;-41
2024/02/15 08:28:29;;;;;;;3.00;2.23;;;15.90;99.90;;;;;;5137995;27;20472;-42
2024/02/15 08:30:58;;;;;;;2.77;2.07;;;15.90;99.90;;;;;;5137044;27;20417;-41
2024/02/15 08:33:28;;;;;;;4.77;2.10;;;15.60;99.90;;;;;;5136076;27;20258;-41
2024/02/15 08:35:55;;;;;;;2.50;1.70;;;15.20;99.90;;;;;;5116063;27;20787;-45
2024/02/15 08:38:24;;;;;;;4.03;2.43;;;15.00;99.90;;;;;;5116593;27;20408;-43
2024/02/15 08:40:50;;;;;;;3.97;2.70;;;14.70;99.90;;;;;;5134707;27;20424;-42
2024/02/15 08:43:16;;;;;;;3.87;2.47;;;14.30;1.00;;;;;;5100573;27;20637;-42
2024/02/15 08:45:45;;;;;;;5.07;2.90;;;14.10;1.00;;;;;;5135774;27;21084;-41
2024/02/15 08:48:11;;;;;;;3.90;2.73;;;14.10;1.00;;;;;;5134199;27;20449;-42
2024/02/15 08:50:37;;;;;;;3.10;2.43;;;13.90;1.00;;;;;;5135734;27;20411;-42
2024/02/15 08:53:06;;;;;;;3.33;3.03;;;13.90;83.10;;;;;;5106107;27;20437;-44
2024/02/15 08:55:35;;;;;;;3.30;2.57;;;13.90;37.00;;;;;;5115664;28;20171;-42
2024/02/15 08:58:02;;;;;;;3.87;3.50;;;14.00;45.70;;;;;;5080577;28;20448;-42
2024/02/15 09:00:28;;;;;;;3.43;2.80;;;14.30;99.90;;;;;;5114474;28;20938;-41
2024/02/15 09:02:58;;;;;;;3.13;2.63;;;14.90;1.00;;;;;;5095729;28;20554;-42
2024/02/15 09:05:24;;;;;;;2.93;2.23;;;15.40;1.00;;;;;;5115408;28;20490;-46
2024/02/15 09:07:52;;;;;;;3.70;3.40;;;16.00;99.90;;;;;;5114875;28;20445;-44
2024/02/15 09:10:22;;;;;;;5.53;2.43;;;16.60;99.90;;;;;;5097003;28;20426;-43
2024/02/15 09:12:48;;;;;;;4.20;2.67;;;17.10;99.90;;;;;;5097766;28;20835;-43
2024/02/15 09:15:15;;;;;;;5.03;2.60;;;;;;;;;;5113928;28;20437;-42
2024/02/15 09:17:42;;;;;;;4.03;2.27;;;18.20;99.90;;;;;;5112862;28;20406;-43
2024/02/15 09:20:14;;;;;;;3.27;2.40;;;19.50;38.30;;;;;;5125603;27;20847;-43
2024/02/15 09:22:54;;;;;;;3.90;2.60;;;20.50;1.00;;;;;;5092425;28;20542;-47
2024/02/15 09:25:23;;;;;;;4.07;2.47;;;20.60;1.00;;;;;;5112777;28;20438;-40
2024/02/15 09:27:49;;;;;;;3.53;2.37;;;21.70;1.00;;;;;;5111392;28;20421;-44
2024/02/15 09:30:18;;;;;;;5.60;2.00;;;22.90;1.00;;;;;;5111251;28;20707;-42
2024/02/15 09:32:44;;;;;;;3.23;2.30;;;23.50;1.00;;;;;;5109786;28;20422;-41
2024/02/15 09:35:14;;;;;;;2.50;1.90;;;23.80;1.00;;;;;;5108819;28;20425;-44
2024/02/15 09:37:50;;;;;;;2.47;2.03;;;23.80;1.00;;;;;;5109729;28;20430;-43
2024/02/15 09:40:17;;;;;;;2.83;1.97;;;23.80;1.00;;;;;;5113331;28;20473;-44
2024/02/15 09:42:46;;;;;;;2.47;2.00;;;24.10;1.00;;;;;;5113517;28;20469;-45
2024/02/15 09:45:14;;;;;;;2.80;1.90;;;24.80;1.00;;;;;;5114480;28;20388;-42
2024/02/15 09:47:42;;;;;;;4.30;2.40;;;26.10;1.00;;;;;;5114094;28;20477;-41
2024/02/15 09:50:13;;;;;;;9.57;2.50;;;27.50;1.00;;;;;;5111955;28;20397;-42
2024/02/15 09:52:40;;;;;;;3.90;1.47;;;28.90;1.00;;;;;;5111993;28;20481;-41
2024/02/15 09:55:13;;;;;;;4.33;1.70;;;30.40;99.90;;;;;;5093923;28;20922;-40
2024/02/15 09:57:39;;;;;;;4.93;1.70;;;31.50;99.90;;;;;;5112534;28;20689;-42
2024/02/15 10:00:07;;;;;;;3.40;1.47;;;32.30;1.00;;;;;;5113388;28;20753;-43
2024/02/15 10:02:36;;;;;;;3.00;1.80;;;33.10;1.00;;;;;;5113138;28;20895;-43
2024/02/15 10:05:02;;;;;;;2.30;1.63;;;33.70;99.90;;;;;;5114337;28;20388;-43
2024/02/15 10:07:27;;;;;;;2.47;1.40;;;34.10;99.90;;;;;;5117451;28;20384;-41
2024/02/15 10:09:54;;;;;;;3.70;1.67;;;34.50;99.90;;;;;;5116399;28;20774;-44
2024/02/15 10:12:22;;;;;;;1.93;1.30;;;34.60;1.00;;;;;;5117774;28;20179;-41
2024/02/15 10:14:49;;;;;;;2.07;1.30;;;34.80;1.00;;;;;;5115947;28;20457;-42
2024/02/15 10:17:17;;;;;;;2.53;1.60;;;34.80;1.00;;;;;;5099802;28;20425;-42
2024/02/15 10:19:44;;;;;;;3.67;1.67;;;35.10;1.00;;;;;;5102813;28;20410;-43
2024/02/15 10:22:11;;;;;;;2.53;1.40;;;35.40;1.00;;;;;;5119163;28;20851;-45
2024/02/15 10:24:39;;;;;;;3.20;1.50;;;35.70;99.90;;;;;;5102865;28;20425;-43
2024/02/15 10:27:10;;;;;;;2.80;1.90;;;34.80;99.90;;;;;;5099969;28;20502;-49
2024/02/15 10:29:36;;;;;;;3.67;1.50;;;33.80;99.90;;;;;;5117950;28;20433;-48
2024/02/15 10:32:03;;;;;;;3.23;1.57;;;32.80;99.90;;;;;;5134510;27;20475;-41
2024/02/15 10:34:30;;;;;;;2.10;1.70;;;32.10;99.90;;;;;;5118380;28;20429;-45
2024/02/15 10:37:16;;;;;;;5.80;1.70;;;31.60;99.90;;;;;;5099246;28;20678;-46
2024/02/15 10:39:42;;;;;;;4.17;1.80;;;31.10;99.90;;;;;;5099924;28;20422;-44
2024/02/15 10:42:10;;;;;;;2.30;1.50;;;30.70;1.00;;;;;;5100633;28;20850;-45
2024/02/15 10:44:40;;;;;;;2.83;1.87;;;30.70;1.00;;;;;;5117274;28;20506;-47
2024/02/15 10:47:07;;;;;;;3.50;1.50;;;30.60;1.00;;;;;;5100134;28;20418;-45
2024/02/15 10:49:34;;;;;;;1.80;1.20;;;30.60;1.00;;;;;;5117682;28;20600;-45
2024/02/15 10:52:04;;;;;;;3.37;1.57;;;30.60;1.00;;;;;;5117523;28;20435;-45
2024/02/15 10:54:47;;;;;;;1.80;1.27;;;30.70;1.00;;;;;;5116704;28;20878;-46
2024/02/15 10:57:17;;;;;;;2.63;1.63;;;30.80;1.00;;;;;;5115329;28;20407;-45
2024/02/15 10:59:54;;;;;;;2.10;1.50;;;31.10;1.00;;;;;;5097582;28;20388;-44
2024/02/15 11:02:29;;;;;;;2.63;1.60;;;31.40;1.00;;;;;;5115361;28;20412;-49
2024/02/15 11:05:03;;;;;;;2.13;1.17;;;31.50;1.00;;;;;;5099756;28;20416;-46
2024/02/15 11:07:30;;;;;;;1.63;1.00;;;31.50;1.00;;;;;;5115653;27;20523;-47
2024/02/15 11:09:58;;;;;;;2.20;1.50;;;31.80;1.00;;;;;;5115473;28;20425;-45
2024/02/15 11:12:28;;;;;;;3.93;1.23;;;32.10;1.00;;;;;;5115147;28;20480;-46
2024/02/15 11:14:54;;;;;;;2.43;1.20;;;32.10;1.00;;;;;;5097818;28;20413;-45
2024/02/15 11:17:43;;;;;;;2.30;1.07;;;32.40;1.00;;;;;;5096747;28;20475;-44
2024/02/15 11:20:32;;;;;;;2.40;1.10;;;32.60;1.00;;;;;;5098318;28;20422;-45
2024/02/15 11:22:58;;;;;;;2.13;1.20;;;32.60;99.90;;;;;;5115722;28;20388;-46
2024/02/15 11:25:38;;;;;;;1.40;0.90;;;32.50;21.40;;;;;;5115799;28;20732;-48
2024/02/15 11:28:30;;;;;;;2.57;1.27;;;32.60;19.60;;;;;;5114212;28;20392;-45
2024/02/15 11:30:56;;;;;;;1.90;1.00;;;32.30;18.60;;;;;;5104113;28;20448;-49
2024/02/15 11:33:31;;;;;;;2.17;1.00;;;32.10;18.40;;;;;;5095700;28;20509;-47
2024/02/15 11:36:11;;;;;;;1.70;1.00;;;32.00;17.20;;;;;;5112897;28;20692;-44
2024/02/15 11:38:37;;;;;;;1.97;1.00;;;31.80;15.50;;;;;;5096174;28;20417;-45
2024/02/15 11:41:06;;;;;;;2.67;1.30;;;31.90;16.30;;;;;;5113561;28;20655;-45
2024/02/15 11:43:54;;;;;;;1.87;1.20;;;31.90;16.50;;;;;;5094315;28;20391;-45
2024/02/15 11:46:21;;;;;;;2.23;1.00;;;31.80;17.30;;;;;;5111547;28;20414;-45
2024/02/15 11:48:47;;;;;;;2.23;0.97;;;31.80;25.20;;;;;;5112856;28;20690;-44
2024/02/15 11:51:29;;;;;;;1.70;0.97;;;31.70;25.80;;;;;;5114476;28;20448;-44
2024/02/15 11:54:14;;;;;;;1.93;0.93;;;31.60;24.30;;;;;;5116461;28;20460;-44
2024/02/15 11:57:04;;;;;;;1.83;0.90;;;31.30;23.00;;;;;;5115762;28;20462;-46
2024/02/15 11:59:42;;;;;;;1.53;1.00;;;31.00;22.20;;;;;;5114595;28;20420;-45
2024/02/15 12:18:54;;;;;;;2.40;1.00;;;30.60;18.80;;;;;;5114495;28;20570;-44
2024/02/15 12:21:25;;;;;;;1.97;1.00;;;30.40;18.90;;;;;;5130678;27;20433;-45
2024/02/15 12:23:52;;;;;;;2.30;1.10;;;30.00;18.80;;;;;;5096935;28;20472;-46
2024/02/15 12:26:23;;;;;;;3.10;2.00;;;30.00;19.30;;;;;;5096806;28;20705;-48
2024/02/15 12:28:56;;;;;;;1.93;1.37;;;30.00;18.80;;;;;;5097326;28;20671;-45
2024/02/15 12:31:22;;;;;;;1.83;1.47;;;30.00;18.10;;;;;;5115160;28;20457;-46
2024/02/15 12:34:06;;;;;;;1.93;1.43;;;30.10;18.60;;;;;;5114303;28;20409;-43
2024/02/15 12:36:38;;;;;;;1.83;1.40;;;30.00;17.30;;;;;;5114810;28;20804;-45
2024/02/15 12:39:16;;;;;;;2.60;1.43;;;29.90;17.30;;;;;;5098075;28;20417;-43
2024/02/15 12:41:52;;;;;;;1.70;1.33;;;29.80;16.50;;;;;;5112798;28;20428;-44
2024/02/15 12:44:20;;;;;;;1.40;1.13;;;29.80;17.00;;;;;;5097188;28;20457;-45
2024/02/15 12:46:47;;;;;;;1.67;1.10;;;30.00;17.40;;;;;;5096395;28;20417;-48
2024/02/15 12:49:19;;;;;;;1.87;1.07;;;30.10;17.50;;;;;;5078905;28;20765;-43
2024/02/15 12:51:52;;;;;;;1.83;1.20;;;30.10;17.00;;;;;;5113446;28;20500;-45
2024/02/15 12:54:21;;;;;;;2.43;1.37;;;30.30;17.40;;;;;;5115226;28;20518;-44
2024/02/15 12:56:53;;;;;;;2.07;1.20;;;30.10;17.00;;;;;;5131020;27;20503;-45
2024/02/15 12:59:19;;;;;;;1.40;1.20;;;30.20;16.90;;;;;;5130532;27;20837;-45
2024/02/15 13:01:48;;;;;;;2.60;1.30;;;29.90;16.30;;;;;;5096322;28;20468;-43
2024/02/15 13:04:31;;;;;;;1.87;1.30;;;29.50;15.30;;;;;;5113082;28;20184;-43
2024/02/15 13:06:57;;;;;;;1.63;1.10;;;29.00;14.30;;;;;;5113377;28;20425;-44
2024/02/15 13:09:23;;;;;;;2.13;1.20;;;28.90;12.80;;;;;;5111931;28;20433;-45
2024/02/15 13:11:49;;;;;;;2.20;1.33;;;28.60;10.60;;;;;;5112794;28;20280;-45
2024/02/15 13:14:15;;;;;;;1.40;0.93;;;28.30;17.10;;;;;;5094411;28;20360;-45
2024/02/15 13:16:42;;;;;;;2.23;1.20;;;28.20;9.20;;;;;;5093502;28;20421;-43
2024/02/15 13:19:08;;;;;;;2.80;1.30;;;27.90;8.50;;;;;;5095307;28;20525;-45
2024/02/15 13:21:34;;;;;;;1.80;1.40;;;27.60;6.70;;;;;;5096699;28;20425;-44
2024/02/15 13:24:04;;;;;;;2.80;1.53;;;27.40;5.30;;;;;;5113374;28;20435;-43
2024/02/15 13:26:30;;;;;;;3.30;1.60;;;27.30;4.10;;;;;;5094754;28;20194;-44
2024/02/15 13:28:56;;;;;;;2.23;1.53;;;27.20;4.80;;;;;;5093249;28;20505;-43
2024/02/15 13:31:22;;;;;;;8.53;1.43;;;27.20;4.90;;;;;;5095389;28;20977;-43